Time;durP1;ratioP1;P1;durP2;ratioP2;P2;SDS_P1;SDS_P2;PMS_P1;PMS_P2;Temp;Humidity;BMP_temperature;BMP_pressure;BME280_temperature;BME280_humidity;BME280_pressure;Samples;Min_cycle;Max_cycle;Signal;HPM_P1;HPM_P2
2022/12/14 00:01:13;;;;;;;10.37;8.43;;;;;;;-2.32;94.79;99272.28;1795085;79;21038;-72
2022/12/14 00:03:39;;;;;;;10.57;8.30;;;;;;;-2.31;94.67;99268.66;1795332;78;21542;-71
2022/12/14 00:06:21;;;;;;;10.33;9.27;;;;;;;-2.32;94.69;99274.92;1795440;79;21641;-72
2022/12/14 00:08:51;;;;;;;10.80;9.73;;;;;;;-2.32;94.58;99282.82;1764592;81;21022;-72
2022/12/14 00:11:22;;;;;;;13.10;10.73;;;;;;;-2.30;94.64;99278.67;1737902;81;21184;-72
2022/12/14 00:13:46;;;;;;;10.43;8.67;;;;;;;-2.31;94.50;99285.78;1775656;78;21594;-71
2022/12/14 00:16:16;;;;;;;11.07;9.43;;;;;;;-2.32;94.50;99280.69;1770930;79;21241;-70
2022/12/14 00:18:43;;;;;;;10.47;8.93;;;;;;;-2.32;94.52;99282.00;1793786;78;21042;-71
2022/12/14 00:21:11;;;;;;;13.23;7.90;;;;;;;-2.36;94.42;99280.23;1794138;79;21026;-70
2022/12/14 00:23:39;;;;;;;10.50;9.40;;;;;;;-2.38;94.46;99286.65;1793954;80;21047;-72
2022/12/14 00:26:19;;;;;;;15.03;8.50;;;;;;;-2.38;94.67;99296.69;1809470;78;21711;-70
2022/12/14 00:28:47;;;;;;;12.17;8.37;;;;;;;-2.38;94.71;99290.11;1796189;79;21179;-70
2022/12/14 00:31:15;;;;;;;12.37;9.70;;;;;;;-2.36;94.83;99304.42;1795725;79;21023;-71
2022/12/14 00:33:43;;;;;;;16.83;9.87;;;;;;;-2.36;94.85;99302.61;1795752;78;20943;-71
2022/12/14 00:36:10;;;;;;;12.67;9.00;;;;;;;-2.33;95.08;99304.88;1795051;78;21051;-71
2022/12/14 00:38:38;;;;;;;11.50;9.30;;;;;;;-2.28;95.19;99305.17;1796306;79;21026;-71
2022/12/14 00:41:05;;;;;;;11.87;8.80;;;;;;;-2.24;95.08;99299.04;1795815;79;21137;-71
2022/12/14 00:43:32;;;;;;;9.17;8.13;;;;;;;-2.23;95.07;99304.14;1795748;78;20919;-72
2022/12/14 00:45:58;;;;;;;11.13;9.70;;;;;;;-2.23;95.06;99313.36;1793058;79;20928;-70
2022/12/14 00:48:26;;;;;;;13.43;9.97;;;;;;;-2.24;95.03;99308.25;1826773;78;21646;-70
2022/12/14 00:50:54;;;;;;;11.07;8.67;;;;;;;-2.27;95.10;99312.08;1828304;78;20986;-71
2022/12/14 00:53:21;;;;;;;9.97;8.77;;;;;;;-2.28;95.19;99314.38;1828386;78;21187;-71
2022/12/14 00:55:47;;;;;;;11.10;8.87;;;;;;;-2.29;95.33;99318.50;1818516;78;20948;-71
2022/12/14 00:58:15;;;;;;;14.70;9.97;;;;;;;-2.30;95.41;99312.91;1792663;80;21026;-71
2022/12/14 01:00:44;;;;;;;12.10;9.83;;;;;;;-2.29;95.53;99325.91;1765955;80;21056;-72
2022/12/14 01:03:11;;;;;;;9.93;8.93;;;;;;;-2.26;95.62;99322.12;1786088;80;21023;-72
2022/12/14 01:05:38;;;;;;;13.20;10.63;;;;;;;-2.22;95.74;99322.91;1786042;78;21007;-71
2022/12/14 01:08:06;;;;;;;11.77;9.50;;;;;;;-2.20;95.72;99320.89;1790639;80;21457;-71
2022/12/14 01:10:33;;;;;;;13.00;10.83;;;;;;;-2.18;95.90;99327.31;1786001;80;20972;-71
2022/12/14 01:13:00;;;;;;;11.93;9.93;;;;;;;-2.14;95.95;99326.45;1785984;80;21024;-71
2022/12/14 01:15:27;;;;;;;15.30;12.40;;;;;;;-2.13;96.04;99333.36;1795619;78;21070;-73
2022/12/14 01:17:54;;;;;;;13.23;11.10;;;;;;;-2.13;96.04;99331.55;1785679;79;21138;-71
2022/12/14 01:20:20;;;;;;;12.43;10.50;;;;;;;-2.13;96.12;99335.50;1810794;79;21020;-71
2022/12/14 01:22:47;;;;;;;12.63;8.93;;;;;;;-2.13;96.26;99327.59;1819073;78;20909;-72
2022/12/14 01:25:13;;;;;;;11.07;8.77;;;;;;;-2.09;96.37;99334.64;1794690;78;21023;-72
2022/12/14 01:27:40;;;;;;;12.33;10.23;;;;;;;-2.06;96.38;99336.41;1785915;80;21065;-70
2022/12/14 01:30:08;;;;;;;12.27;10.97;;;;;;;-2.05;96.39;99332.79;1785614;80;21259;-71
2022/12/14 01:32:35;;;;;;;13.10;10.43;;;;;;;-2.04;96.40;99342.34;1785958;80;21093;-70
2022/12/14 01:35:01;;;;;;;13.07;10.27;;;;;;;-1.99;96.47;99333.90;1787967;78;21018;-71
2022/12/14 01:37:28;;;;;;;11.87;10.00;;;;;;;-1.98;96.37;99331.59;1786252;79;21037;-70
2022/12/14 01:39:54;;;;;;;13.87;10.30;;;;;;;-1.97;96.35;99336.69;1786932;80;20943;-70
2022/12/14 01:42:21;;;;;;;15.47;10.23;;;;;;;-1.94;96.37;99338.14;1789163;80;21108;-71
2022/12/14 01:44:56;;;;;;;11.40;8.83;;;;;;;-1.94;96.21;99342.91;1792130;78;20968;-71
2022/12/14 01:47:41;;;;;;;10.87;9.60;;;;;;;-1.92;96.16;99341.42;1786950;79;21485;-70
2022/12/14 01:50:28;;;;;;;10.20;9.20;;;;;;;-1.92;95.88;99342.74;1785683;80;21087;-70
2022/12/14 01:53:00;;;;;;;12.77;9.93;;;;;;;-1.90;95.83;99347.32;1785730;80;21033;-70
2022/12/14 01:55:32;;;;;;;12.57;10.37;;;;;;;-1.89;95.68;99346.33;1790374;78;21882;-70
2022/12/14 01:58:10;;;;;;;11.37;8.63;;;;;;;-1.89;95.40;99354.23;1788491;78;20927;-71
2022/12/14 02:00:37;;;;;;;12.27;9.70;;;;;;;-1.90;95.36;99352.09;1734927;82;21569;-72
2022/12/14 02:03:19;;;;;;;11.53;8.83;;;;;;;-1.92;95.16;99357.23;1725117;81;21073;-71
2022/12/14 04:57:47;;;;;;;8.73;6.80;;;;;;;-3.45;88.90;99517.44;1869812;76;26326;-69
2022/12/14 05:00:15;;;;;;;11.70;8.17;;;;;;;-3.39;88.65;99527.80;1818645;77;20952;-70
2022/12/14 05:03:14;;;;;;;7.47;6.77;;;;;;;-3.30;88.11;99532.06;1823916;78;21093;-67
2022/12/14 05:06:05;;;;;;;7.17;6.30;;;;;;;-3.21;87.81;99532.38;1772284;78;21068;-69
2022/12/14 05:08:43;;;;;;;9.93;7.20;;;;;;;-3.13;87.15;99527.95;1821884;78;20974;-67
2022/12/14 05:11:42;;;;;;;9.27;7.27;;;;;;;-3.09;86.37;99548.16;1821844;78;20989;-69
2022/12/14 05:14:32;;;;;;;7.77;6.97;;;;;;;-3.07;85.85;99552.25;1821820;78;21489;-68
2022/12/14 05:16:58;;;;;;;9.10;8.07;;;;;;;-3.03;85.71;99552.77;1812450;78;21359;-68
2022/12/14 05:19:25;;;;;;;7.70;7.00;;;;;;;-3.01;85.43;99563.93;1821720;78;21205;-69
2022/12/14 05:21:53;;;;;;;8.80;7.83;;;;;;;-3.01;85.15;99562.61;1821807;78;21519;-67
2022/12/14 05:24:19;;;;;;;9.43;7.47;;;;;;;-2.99;85.25;99568.55;1821785;78;21047;-70
2022/12/14 05:26:46;;;;;;;8.47;6.93;;;;;;;-2.93;85.41;99573.15;1817541;78;21007;-69
2022/12/14 05:29:13;;;;;;;9.47;8.00;;;;;;;-2.85;85.26;99574.94;1817348;78;21215;-68
2022/12/14 05:31:40;;;;;;;8.40;7.50;;;;;;;-2.80;85.28;99580.52;1821679;78;21007;-71
2022/12/14 05:34:07;;;;;;;9.83;7.90;;;;;;;-2.75;84.94;99576.41;1821608;78;21015;-69
2022/12/14 05:36:34;;;;;;;9.27;7.60;;;;;;;-2.73;84.59;99580.16;1821670;78;20943;-69
2022/12/14 05:39:00;;;;;;;10.03;8.63;;;;;;;-2.73;84.59;99593.32;1816464;78;21066;-67
2022/12/14 05:41:27;;;;;;;10.57;8.93;;;;;;;-2.71;84.77;99592.19;1781379;80;21231;-70
2022/12/14 05:43:54;;;;;;;11.37;8.57;;;;;;;-2.66;84.84;99600.40;1787933;79;21075;-71
2022/12/14 05:46:20;;;;;;;12.83;10.23;;;;;;;-2.62;84.91;99606.63;1765197;80;21003;-71
2022/12/14 05:48:46;;;;;;;11.53;9.10;;;;;;;-2.64;85.07;99597.61;1763472;80;21594;-71
2022/12/14 05:51:14;;;;;;;18.67;10.00;;;;;;;-2.62;85.34;99603.52;1762274;81;21018;-71
2022/12/14 05:53:41;;;;;;;11.70;10.20;;;;;;;-2.60;85.54;99610.77;1755785;80;21291;-71
2022/12/14 05:56:09;;;;;;;13.30;9.83;;;;;;;-2.59;85.75;99612.91;1753871;79;20990;-73
2022/12/14 05:58:35;;;;;;;12.53;10.27;;;;;;;-2.62;85.89;99615.36;1763502;81;20944;-72
2022/12/14 06:01:05;;;;;;;12.33;10.97;;;;;;;-2.66;86.00;99622.77;1740442;79;21042;-72
2022/12/14 06:03:33;;;;;;;14.77;10.33;;;;;;;-2.67;86.24;99624.25;1734224;82;21583;-71
2022/12/14 06:06:04;;;;;;;13.70;10.67;;;;;;;-2.68;86.35;99630.48;1733975;82;21826;-71
2022/12/14 06:08:39;;;;;;;14.73;10.83;;;;;;;-2.70;86.37;99633.31;1714552;81;21065;-70
2022/12/14 06:11:20;;;;;;;9.73;8.70;;;;;;;-2.69;86.34;99634.13;1738500;80;22232;-71
2022/12/14 06:13:47;;;;;;;13.00;11.00;;;;;;;-2.69;86.23;99649.44;1733567;81;21542;-70
2022/12/14 06:16:22;;;;;;;13.57;9.87;;;;;;;-2.70;86.19;99653.55;1741166;81;21783;-71
2022/12/14 06:18:52;;;;;;;14.13;10.30;;;;;;;-2.70;85.82;99643.84;1735324;81;21108;-71
2022/12/14 06:21:22;;;;;;;11.63;9.17;;;;;;;-2.71;85.67;99650.58;1746557;80;21042;-70
2022/12/14 06:23:49;;;;;;;20.57;15.90;;;;;;;-2.72;85.45;99649.75;1753455;81;21352;-70
2022/12/14 06:26:15;;;;;;;12.37;9.27;;;;;;;-2.69;85.36;99654.70;1738128;80;21555;-72
2022/12/14 06:28:42;;;;;;;12.97;10.57;;;;;;;-2.68;85.11;99656.32;1753478;81;21118;-71
2022/12/14 06:31:17;;;;;;;11.03;9.27;;;;;;;-2.65;85.10;99670.98;1742957;79;21238;-71
2022/12/14 06:33:43;;;;;;;13.90;9.50;;;;;;;-2.63;84.69;99668.98;1731134;82;20971;-71
2022/12/14 06:36:24;;;;;;;9.90;8.90;;;;;;;-2.61;84.62;99690.71;1752026;81;21645;-72
2022/12/14 06:38:51;;;;;;;11.90;8.40;;;;;;;-2.57;84.45;99670.14;1740845;81;21054;-66
2022/12/14 06:41:18;;;;;;;10.30;8.80;;;;;;;-2.54;84.14;99679.83;1759079;81;20990;-71
2022/12/14 06:43:44;;;;;;;10.80;9.63;;;;;;;-2.53;83.96;99680.16;1755841;81;21767;-71
2022/12/14 06:46:14;;;;;;;11.30;9.07;;;;;;;-2.52;83.71;99688.40;1754492;81;21004;-72
2022/12/14 06:48:41;;;;;;;11.67;9.03;;;;;;;-2.51;83.59;99687.41;1739259;81;20971;-75
2022/12/14 06:51:08;;;;;;;10.47;9.37;;;;;;;-2.51;83.42;99695.31;1740156;81;21034;-71
2022/12/14 06:53:35;;;;;;;10.67;9.13;;;;;;;-2.50;83.16;99694.83;1738448;81;21094;-72
2022/12/14 06:56:09;;;;;;;10.73;8.90;;;;;;;-2.52;83.06;99705.52;1734414;81;21042;-72
2022/12/14 06:58:36;;;;;;;10.53;9.07;;;;;;;-2.53;82.82;99712.25;1754583;81;21046;-72
2022/12/14 07:01:04;;;;;;;10.93;9.77;;;;;;;-2.53;83.01;99717.52;1751354;81;21084;-71
2022/12/14 07:03:31;;;;;;;11.57;9.83;;;;;;;-2.49;82.92;99710.44;1753522;81;21567;-72
2022/12/14 07:05:58;;;;;;;13.67;10.90;;;;;;;-2.45;82.67;99724.11;1740256;81;21054;-74
2022/12/14 07:08:25;;;;;;;12.30;10.40;;;;;;;-2.45;82.51;99716.22;1737098;80;21130;-73
2022/12/14 07:10:52;;;;;;;12.17;8.30;;;;;;;-2.43;82.31;99724.75;1750960;80;21547;-69
2022/12/14 07:13:20;;;;;;;15.93;11.23;;;;;;;-2.40;82.14;99731.02;1749201;81;21598;-69
2022/12/14 07:15:55;;;;;;;12.60;10.00;;;;;;;-2.37;81.89;99734.14;1744704;81;21089;-69
2022/12/14 07:18:22;;;;;;;14.50;10.33;;;;;;;-2.36;81.65;99734.97;1750019;80;21113;-70
2022/12/14 07:21:06;;;;;;;13.97;11.00;;;;;;;-2.35;81.50;99732.67;1753802;81;21266;-69
2022/12/14 07:23:33;;;;;;;13.13;9.27;;;;;;;-2.35;81.23;99744.00;1761644;80;20939;-69
2022/12/14 07:26:03;;;;;;;12.93;10.53;;;;;;;-2.33;81.21;99737.25;1746697;81;21026;-67
2022/12/14 07:28:30;;;;;;;13.67;9.00;;;;;;;-2.33;80.89;99747.30;1742262;82;21038;-74
2022/12/14 07:31:00;;;;;;;12.97;9.90;;;;;;;-2.30;80.96;99754.86;1748144;81;21078;-68
2022/12/14 07:33:26;;;;;;;13.47;11.07;;;;;;;-2.25;80.78;99766.21;1763678;81;21121;-69
2022/12/14 07:36:11;;;;;;;12.77;10.80;;;;;;;-2.23;80.77;99765.56;1755070;80;21061;-71
2022/12/14 07:38:39;;;;;;;12.47;9.10;;;;;;;-2.21;80.81;99776.77;1759477;81;21593;-73
2022/12/14 07:41:11;;;;;;;11.43;9.43;;;;;;;-2.16;80.54;99773.64;1743360;81;21721;-71
2022/12/14 07:43:39;;;;;;;13.55;11.63;;;;;;;-2.14;80.55;99784.81;1760156;81;21937;-78
2022/12/14 07:46:09;;;;;;;13.87;11.53;;;;;;;-2.12;80.81;99778.89;1746960;81;22150;-70
2022/12/14 07:48:36;;;;;;;12.87;10.37;;;;;;;-2.04;80.95;99784.98;1753019;80;21052;-76
2022/12/14 07:51:08;;;;;;;17.90;10.47;;;;;;;-2.01;80.90;99793.85;1757657;80;20919;-65
2022/12/14 07:53:35;;;;;;;12.35;10.95;;;;;;;-2.00;80.95;99794.19;1758809;80;21065;-73
2022/12/14 07:56:05;;;;;;;13.83;11.87;;;;;;;-1.99;80.93;99804.23;1743779;81;21034;-84
2022/12/14 07:58:33;;;;;;;13.77;12.33;;;;;;;-2.06;80.94;99795.37;1760225;80;21292;-71
2022/12/14 08:01:13;;;;;;;16.37;12.20;;;;;;;-2.05;81.32;99795.67;1775755;80;21037;-72
2022/12/14 08:03:52;;;;;;;16.27;11.53;;;;;;;-2.03;81.55;99795.02;1753686;80;21248;-70
2022/12/14 08:06:19;;;;;;;16.93;13.33;;;;;;;-1.99;81.71;99795.84;1737801;81;20955;-70
2022/12/14 08:08:46;;;;;;;14.70;12.57;;;;;;;-1.96;81.83;99797.30;1747405;81;21077;-69
2022/12/14 08:11:13;;;;;;;15.40;12.50;;;;;;;-1.94;81.77;99801.44;1741783;81;21135;-67
2022/12/14 08:13:42;;;;;;;20.00;13.77;;;;;;;-1.94;81.68;99805.88;1746478;80;21069;-73
2022/12/14 08:16:10;;;;;;;17.10;12.43;;;;;;;-1.91;81.80;99812.13;1746175;81;21112;-69
2022/12/14 08:18:37;;;;;;;14.73;12.93;;;;;;;-1.89;81.62;99823.34;1757334;81;21539;-68
2022/12/14 08:21:06;;;;;;;15.87;12.33;;;;;;;-1.90;81.33;99834.37;1757388;80;21094;-69
2022/12/14 08:23:33;;;;;;;17.57;12.73;;;;;;;-1.89;81.23;99817.57;1734318;81;21162;-69
2022/12/14 08:26:00;;;;;;;17.63;11.63;;;;;;;-1.87;80.98;99810.30;1739383;81;20967;-67
2022/12/14 08:28:28;;;;;;;15.90;13.27;;;;;;;-1.84;80.82;99813.94;1731570;82;21061;-70
2022/12/14 08:30:55;;;;;;;15.37;12.47;;;;;;;-1.81;81.07;99830.73;1757319;81;20936;-70
2022/12/14 08:33:21;;;;;;;15.73;11.63;;;;;;;-1.76;81.14;99823.63;1733925;81;21070;-68
2022/12/14 08:35:48;;;;;;;16.13;12.43;;;;;;;-1.73;80.92;99829.91;1749626;81;21136;-68
2022/12/14 08:38:15;;;;;;;17.60;15.03;;;;;;;-1.71;80.61;99834.50;1733324;81;20983;-70
2022/12/14 08:40:41;;;;;;;20.83;14.63;;;;;;;-1.71;80.67;99833.19;1778509;80;21386;-68
2022/12/14 08:43:08;;;;;;;15.67;12.07;;;;;;;-1.68;80.51;99837.31;1785336;80;21650;-71
2022/12/14 08:45:35;;;;;;;13.83;11.13;;;;;;;-1.66;80.47;99843.23;1786039;80;21523;-69
2022/12/14 08:48:01;;;;;;;18.60;13.67;;;;;;;-1.66;79.63;99841.41;1755507;81;21163;-69
2022/12/14 08:50:28;;;;;;;18.40;12.63;;;;;;;-1.65;79.37;99844.39;1755448;81;21280;-69
2022/12/14 08:52:55;;;;;;;15.63;12.27;;;;;;;-1.63;79.40;99845.02;1757262;80;21012;-68
2022/12/14 08:55:22;;;;;;;16.33;12.63;;;;;;;-1.62;79.42;99845.85;1758231;80;20973;-67
2022/12/14 08:57:49;;;;;;;17.27;14.20;;;;;;;-1.58;79.36;99840.59;1755964;81;20941;-68
2022/12/14 09:00:16;;;;;;;16.67;12.87;;;;;;;-1.52;79.50;99839.41;1762822;80;21156;-67
2022/12/14 09:02:43;;;;;;;18.97;13.53;;;;;;;-1.47;79.27;99843.69;1763944;80;21291;-66
2022/12/14 09:05:10;;;;;;;17.90;13.73;;;;;;;-1.44;78.79;99843.86;1767753;80;21527;-68
2022/12/14 09:07:37;;;;;;;20.70;14.53;;;;;;;-1.42;78.12;99837.41;1779025;80;21086;-68
2022/12/14 09:10:06;;;;;;;16.50;13.37;;;;;;;-1.41;77.88;99836.91;1783846;80;21115;-69
2022/12/14 09:12:35;;;;;;;16.00;13.70;;;;;;;-1.40;77.25;99839.88;1778331;80;21076;-68
2022/12/14 09:15:02;;;;;;;18.33;13.70;;;;;;;-1.40;77.38;99843.34;1767283;80;21085;-69
2022/12/14 09:17:29;;;;;;;15.70;12.33;;;;;;;-1.37;77.02;99846.95;1778404;78;20923;-71
2022/12/14 09:19:56;;;;;;;15.17;12.80;;;;;;;-1.35;76.94;99850.26;1764187;80;21030;-70
2022/12/14 09:22:24;;;;;;;18.60;12.37;;;;;;;-1.28;76.82;99834.55;1766365;80;20964;-79
2022/12/14 09:24:51;;;;;;;15.57;12.07;;;;;;;-1.21;76.78;99837.34;1764887;81;21118;-81
2022/12/14 09:27:17;;;;;;;18.07;13.13;;;;;;;-1.16;76.42;99848.22;1775212;80;21538;-80
2022/12/14 09:29:44;;;;;;;15.10;11.57;;;;;;;-1.14;75.64;99848.84;1771919;80;21003;-67
2022/12/14 09:32:12;;;;;;;15.97;12.50;;;;;;;-1.12;75.17;99852.98;1766610;80;21646;-70
2022/12/14 09:34:38;;;;;;;16.90;13.10;;;;;;;-1.11;75.04;99859.08;1762087;81;21075;-77
2022/12/14 09:37:06;;;;;;;15.57;11.07;;;;;;;-1.11;74.77;99861.72;1782965;78;21715;-82
2022/12/14 09:39:33;;;;;;;14.70;10.33;;;;;;;-1.11;74.52;99858.59;1774837;80;20982;-81
2022/12/14 09:42:22;;;;;;;14.17;10.53;;;;;;;-1.09;74.56;99853.12;1783513;80;21034;-74
2022/12/14 09:45:16;;;;;;;13.27;9.73;;;;;;;-1.06;74.12;99874.73;1781964;80;20966;-70
2022/12/14 09:48:06;;;;;;;21.80;13.93;;;;;;;-1.08;73.23;99866.64;1779296;80;21089;-74
2022/12/14 09:50:32;;;;;;;15.30;11.20;;;;;;;-1.10;73.60;99858.89;1760058;81;21053;-74
2022/12/14 09:53:02;;;;;;;13.73;11.67;;;;;;;-1.08;73.04;99874.56;1764036;81;20964;-85
2022/12/14 09:55:35;;;;;;;14.57;9.47;;;;;;;-1.10;72.92;99874.72;1768187;80;21041;-84
2022/12/14 09:58:27;;;;;;;15.75;10.78;;;;;;;-1.08;72.83;99864.00;1769763;80;21260;-72
2022/12/14 10:01:23;;;;;;;15.53;10.70;;;;;;;-1.05;72.35;99872.89;1737066;81;21067;-68
2022/12/14 10:04:14;;;;;;;12.87;11.07;;;;;;;-1.01;72.27;99883.46;1771731;79;21587;-68
2022/12/14 10:06:52;;;;;;;19.50;10.90;;;;;;;-0.96;72.29;99876.65;1764488;80;21114;-70
2022/12/14 10:09:41;;;;;;;12.27;9.87;;;;;;;-0.91;71.80;99870.85;1768589;80;20963;-69
2022/12/14 10:12:50;;;;;;;16.83;11.03;;;;;;;-0.85;71.99;99879.41;1762834;80;21006;-68
2022/12/14 10:15:34;;;;;;;12.27;10.43;;;;;;;-0.76;72.18;99896.03;1753568;80;21011;-72
2022/12/14 10:18:09;;;;;;;12.27;9.73;;;;;;;-0.75;71.27;99880.52;1754618;80;21325;-72
2022/12/14 10:20:53;;;;;;;13.05;11.30;;;;;;;-0.71;71.42;99878.69;1773135;80;21057;-69
2022/12/14 10:23:21;;;;;;;;;;;;;;;-0.65;71.49;99879.33;1755469;80;20995;-70
2022/12/14 15:07:36;;;;;;;32.17;22.50;;;;;;;-2.67;74.16;100079.62;1609412;86;31158;-74
2022/12/14 15:10:37;;;;;;;33.67;22.10;;;;;;;-2.68;74.09;100085.38;1622412;87;21614;-75
2022/12/14 15:13:23;;;;;;;34.30;23.13;;;;;;;-2.64;74.14;100081.45;1661510;85;21304;-78
2022/12/14 15:15:52;;;;;;;24.87;17.93;;;;;;;-2.62;74.05;100083.10;1626996;87;20972;-81
2022/12/14 15:18:29;;;;;;;25.63;18.50;;;;;;;-2.60;74.03;100083.78;1620137;86;21084;-77
2022/12/14 15:21:01;;;;;;;25.17;18.40;;;;;;;-2.58;73.60;100087.08;1627619;87;20986;-74
2022/12/14 15:23:41;;;;;;;24.77;17.83;;;;;;;-2.51;73.53;100079.73;1621739;87;21054;-76
2022/12/14 15:26:20;;;;;;;27.97;17.93;;;;;;;-2.42;73.33;100084.05;1623961;86;21243;-74
2022/12/14 15:28:51;;;;;;;25.93;17.20;;;;;;;-2.32;73.21;100090.52;1661900;85;21564;-76
2022/12/14 15:31:28;;;;;;;25.92;16.20;;;;;;;-2.29;72.75;100082.30;1663829;85;20941;-78
2022/12/14 15:33:55;;;;;;;24.13;14.47;;;;;;;-2.26;72.54;100087.27;1661159;85;21627;-73
2022/12/14 15:36:25;;;;;;;22.83;17.13;;;;;;;-2.23;72.34;100085.13;1661161;85;21522;-76
2022/12/14 15:38:54;;;;;;;30.73;21.10;;;;;;;-2.32;71.90;100085.25;1654185;86;21018;-80
2022/12/14 15:41:23;;;;;;;28.23;18.77;;;;;;;-2.45;72.14;100087.50;1664690;85;21088;-80
2022/12/14 15:43:50;;;;;;;31.93;22.13;;;;;;;-2.58;72.34;100090.53;1648441;85;20965;-81
2022/12/14 15:46:28;;;;;;;23.73;17.53;;;;;;;-2.61;72.80;100090.03;1647680;86;21132;-74
2022/12/14 15:49:09;;;;;;;28.77;18.83;;;;;;;-2.55;72.81;100083.66;1658906;85;21087;-70
2022/12/14 15:51:39;;;;;;;33.30;20.97;;;;;;;-2.54;72.81;100082.66;1669506;85;21142;-72
2022/12/14 15:54:13;;;;;;;28.60;20.03;;;;;;;-2.51;72.87;100085.48;1661325;86;21013;-70
2022/12/14 15:56:43;;;;;;;;;;;;;;;-2.54;72.82;100095.81;1646586;87;22249;-71
2022/12/14 15:59:16;;;;;;;26.87;15.37;;;;;;;-2.57;72.96;100091.36;1691426;84;20092;-74
2022/12/14 16:01:45;;;;;;;28.20;19.97;;;;;;;-2.61;73.15;100086.91;1704675;84;21076;-75
2022/12/14 16:04:19;;;;;;;27.13;18.37;;;;;;;-2.73;73.40;100092.91;1672040;85;21187;-69
2022/12/14 16:06:50;;;;;;;28.50;18.87;;;;;;;-2.72;73.69;100088.47;1648483;85;20996;-73
2022/12/14 16:09:33;;;;;;;29.57;19.33;;;;;;;-2.78;73.85;100095.70;1687440;84;21045;-77
2022/12/14 16:12:10;;;;;;;24.97;17.00;;;;;;;-2.81;74.06;100097.30;1689652;85;20954;-86
2022/12/14 16:14:44;;;;;;;25.93;17.67;;;;;;;-2.89;74.44;100093.30;1650985;85;21151;-82
2022/12/14 16:17:13;;;;;;;29.50;18.13;;;;;;;-2.99;74.97;100102.61;1698961;84;21017;-87
2022/12/14 16:19:40;;;;;;;28.40;19.20;;;;;;;-3.09;75.38;100105.81;1687367;84;20982;-72
2022/12/14 16:22:15;;;;;;;23.23;15.00;;;;;;;-3.13;75.89;100101.35;1652010;87;21023;-77
2022/12/14 16:25:10;;;;;;;28.83;20.03;;;;;;;-3.16;76.16;100106.90;1700575;84;20950;-75
2022/12/14 16:27:40;;;;;;;29.60;21.53;;;;;;;-3.22;76.40;100103.58;1621195;86;21102;-74
2022/12/14 16:30:30;;;;;;;26.67;18.70;;;;;;;-3.28;76.90;100105.98;1677690;84;21114;-75
2022/12/14 16:33:07;;;;;;;32.57;21.60;;;;;;;-3.31;77.33;100116.81;1649408;84;21060;-76
2022/12/14 16:35:36;;;;;;;29.70;21.40;;;;;;;-3.37;77.75;100111.66;1689312;84;21060;-72
2022/12/14 16:38:15;;;;;;;27.63;19.73;;;;;;;-3.42;78.16;100115.22;1651517;85;21019;-76
2022/12/14 16:40:56;;;;;;;26.20;17.03;;;;;;;-3.44;78.55;100118.48;1689139;84;21058;-73
2022/12/14 16:43:35;;;;;;;27.53;19.90;;;;;;;-3.40;78.74;100113.73;1680819;84;21139;-75
2022/12/14 16:46:07;;;;;;;27.43;19.83;;;;;;;-3.47;78.97;100115.33;1691949;84;20979;-75
2022/12/14 16:48:42;;;;;;;28.47;19.90;;;;;;;-3.56;79.48;100106.06;1671619;85;21065;-71
2022/12/14 16:51:26;;;;;;;38.80;21.93;;;;;;;-3.63;79.93;100114.67;1653661;85;21036;-75
2022/12/14 16:54:03;;;;;;;31.47;21.27;;;;;;;-3.71;80.46;100113.28;1705774;83;21045;-73
2022/12/14 16:56:33;;;;;;;32.00;20.03;;;;;;;-3.72;80.85;100105.05;1669829;84;21033;-73
2022/12/14 16:59:03;;;;;;;36.07;24.30;;;;;;;-3.60;81.02;100115.19;1629691;87;21532;-70
2022/12/14 17:01:43;;;;;;;38.33;24.63;;;;;;;-3.59;80.80;100125.22;1698404;84;21002;-71
2022/12/14 17:04:11;;;;;;;38.83;23.07;;;;;;;-3.68;80.99;100121.69;1700774;83;20997;-69
2022/12/14 17:06:52;;;;;;;38.63;24.67;;;;;;;-3.75;81.35;100114.55;1699080;83;21192;-70
2022/12/14 17:09:22;;;;;;;36.40;24.50;;;;;;;-3.83;81.69;100118.39;1697695;83;21857;-68
2022/12/14 17:11:51;;;;;;;42.97;25.87;;;;;;;-3.90;82.28;100119.97;1700682;83;20987;-69
2022/12/14 17:14:17;;;;;;;43.27;29.60;;;;;;;-3.91;82.40;100128.81;1695066;83;20981;-72
2022/12/14 17:16:45;;;;;;;42.43;29.03;;;;;;;-3.89;82.83;100138.70;1693061;83;21040;-84
2022/12/14 17:19:19;;;;;;;36.73;26.67;;;;;;;-3.92;82.87;100137.17;1693686;83;21107;-76
2022/12/14 17:21:49;;;;;;;39.00;25.40;;;;;;;-3.90;83.16;100138.35;1698478;83;21132;-77
2022/12/14 17:24:18;;;;;;;37.67;27.43;;;;;;;-3.89;83.37;100142.64;1707073;83;21589;-75
2022/12/14 17:26:45;;;;;;;39.43;24.47;;;;;;;-3.89;83.46;100143.47;1696283;83;21408;-78
2022/12/14 17:29:27;;;;;;;32.47;22.70;;;;;;;-3.91;83.65;100138.84;1701900;83;21111;-70
2022/12/14 17:31:56;;;;;;;35.23;22.60;;;;;;;-3.99;83.83;100137.44;1697672;83;21042;-71
2022/12/14 17:34:23;;;;;;;34.73;20.83;;;;;;;-4.04;83.97;100140.98;1701947;83;21113;-73
2022/12/14 17:36:50;;;;;;;26.70;19.50;;;;;;;-4.08;83.95;100135.20;1674220;84;21064;-73
2022/12/14 17:39:22;;;;;;;30.43;21.77;;;;;;;-4.05;84.05;100136.21;1719257;83;21024;-76
2022/12/14 17:41:51;;;;;;;;;;;;;;;-4.05;83.97;100130.12;1687727;84;21060;-82
2022/12/14 17:44:21;;;;;;;31.83;22.80;;;;;;;-3.99;83.83;100125.61;1697676;83;20522;-79
2022/12/14 17:46:50;;;;;;;32.40;18.97;;;;;;;-3.97;83.64;100124.48;1677939;84;21253;-80
2022/12/14 17:49:32;;;;;;;33.07;22.57;;;;;;;-3.90;83.58;100123.91;1679534;82;21659;-74
2022/12/14 17:51:50;;;;;;;28.47;19.43;;;;;;;-3.82;83.35;100123.50;1708272;83;21631;-82
2022/12/14 17:54:24;;;;;;;22.93;17.03;;;;;;;-3.82;82.90;100122.67;1667933;84;21205;-81
2022/12/14 17:56:54;;;;;;;34.90;24.03;;;;;;;-3.79;82.86;100117.94;1673914;84;21051;-83
